createdAt,value
2022-11-06T00:00:38.091Z,34.85
2022-11-06T00:03:07.015Z,34.80
2022-11-06T00:05:53.412Z,38.90
2022-11-06T00:08:29.657Z,37.85
2022-11-06T00:10:57.748Z,40.35
2022-11-06T00:13:25.922Z,47.03
2022-11-06T00:15:55.393Z,32.15
2022-11-06T00:18:27.553Z,37.58
2022-11-06T00:20:55.737Z,44.38
2022-11-06T00:23:23.762Z,35.22
2022-11-06T00:25:55.838Z,39.95
2022-11-06T00:28:24.294Z,41.63
2022-11-06T00:30:52.342Z,41.35
2022-11-06T00:33:21.729Z,40.90
2022-11-06T00:35:49.673Z,41.63
2022-11-06T00:38:17.841Z,45.83
2022-11-06T00:40:46.052Z,47.08
2022-11-06T00:43:14.050Z,47.13
2022-11-06T00:45:42.036Z,42.70
2022-11-06T00:48:10.201Z,40.65
2022-11-06T00:50:40.029Z,40.08
2022-11-06T00:53:08.072Z,43.50
2022-11-06T00:55:36.534Z,39.60
2022-11-06T00:58:04.719Z,44.95
2022-11-06T01:00:32.654Z,40.92
2022-11-06T01:03:00.727Z,40.38
2022-11-06T01:05:28.840Z,37.08
2022-11-06T01:07:58.194Z,39.28
2022-11-06T01:10:26.153Z,54.60
2022-11-06T01:12:54.132Z,45.45
2022-11-06T01:15:22.049Z,44.08
2022-11-06T01:17:50.183Z,50.38
2022-11-06T01:20:18.300Z,49.17
2022-11-06T01:22:46.440Z,46.78
2022-11-06T01:25:15.898Z,43.10
2022-11-06T01:27:43.874Z,43.42
2022-11-06T01:30:13.121Z,43.88
2022-11-06T01:32:41.597Z,47.22
2022-11-06T01:35:09.913Z,40.80
2022-11-06T01:37:38.442Z,46.67
2022-11-06T01:40:07.173Z,48.35
2022-11-06T01:42:36.834Z,48.88
2022-11-06T01:45:25.807Z,42.53
2022-11-06T01:47:54.090Z,46.58
2022-11-06T01:50:22.565Z,43.80
2022-11-06T01:52:52.058Z,38.08
2022-11-06T01:55:25.222Z,40.08
2022-11-06T01:57:56.090Z,40.50
2022-11-06T02:00:24.807Z,44.58
2022-11-06T02:02:53.324Z,37.53
2022-11-06T02:05:22.029Z,41.80
2022-11-06T02:07:50.988Z,48.53
2022-11-06T02:10:19.189Z,38.05
2022-11-06T02:12:56.442Z,38.58
2022-11-06T02:15:35.572Z,45.20
2022-11-06T02:18:30.833Z,43.38
2022-11-06T02:21:41.245Z,36.20
2022-11-06T02:24:36.851Z,37.72
2022-11-06T02:27:11.584Z,36.60
2022-11-06T02:29:47.216Z,43.30
2022-11-06T02:34:48.824Z,34.42
2022-11-06T02:37:20.665Z,42.90
2022-11-06T02:39:52.709Z,38.97
2022-11-06T02:42:23.144Z,40.17
2022-11-06T02:44:54.891Z,44.78
2022-11-06T02:47:26.020Z,34.60
2022-11-06T02:49:56.925Z,32.88
2022-11-06T02:52:30.216Z,40.90
2022-11-06T02:55:04.478Z,45.47
2022-11-06T02:57:39.794Z,33.88
2022-11-06T03:00:12.584Z,37.33
2022-11-06T03:02:46.862Z,33.17
2022-11-06T03:05:20.989Z,41.28
2022-11-06T03:07:54.374Z,42.97
2022-11-06T03:10:25.857Z,40.90
2022-11-06T03:12:58.280Z,36.85
2022-11-06T03:15:33.571Z,42.10
2022-11-06T03:18:11.712Z,42.83
2022-11-06T03:20:44.601Z,42.10
2022-11-06T03:23:16.092Z,42.80
2022-11-06T03:25:48.299Z,47.67
2022-11-06T03:28:26.304Z,41.58
2022-11-06T03:30:59.577Z,31.95
2022-11-06T03:33:34.086Z,38.50
2022-11-06T03:36:08.154Z,42.60
2022-11-06T03:38:42.354Z,43.45
2022-11-06T03:41:15.901Z,35.97
2022-11-06T03:43:48.933Z,36.25
2022-11-06T03:46:25.334Z,43.95
2022-11-06T03:48:57.911Z,39.08
2022-11-06T03:51:31.556Z,36.33
2022-11-06T03:54:04.307Z,41.47
2022-11-06T03:56:38.411Z,38.20
2022-11-06T03:59:10.154Z,38.70
2022-11-06T04:01:40.334Z,37.28
2022-11-06T04:04:13.045Z,31.70
2022-11-06T04:06:45.285Z,39.25
2022-11-06T04:09:33.833Z,31.20
2022-11-06T04:12:22.187Z,30.73
2022-11-06T04:14:55.808Z,28.90
2022-11-06T04:17:27.499Z,35.58
2022-11-06T04:19:59.614Z,33.45
2022-11-06T04:22:38.457Z,29.05
2022-11-06T04:25:36.797Z,31.00
2022-11-06T04:28:18.884Z,31.02
2022-11-06T04:30:58.452Z,33.40
2022-11-06T04:33:33.435Z,32.08
2022-11-06T04:36:08.442Z,38.65
2022-11-06T04:38:47.481Z,26.42
2022-11-06T04:41:22.179Z,26.92
2022-11-06T04:43:54.075Z,30.87
2022-11-06T04:46:27.313Z,27.17
2022-11-06T04:48:56.273Z,26.67
2022-11-06T04:51:28.234Z,26.40
2022-11-06T04:53:57.526Z,34.53
2022-11-06T04:56:34.097Z,26.83
2022-11-06T04:59:03.473Z,30.52
2022-11-06T05:01:33.353Z,36.90
2022-11-06T05:04:01.796Z,38.40
2022-11-06T05:06:30.405Z,34.50
2022-11-06T05:08:59.277Z,30.15
2022-11-06T05:11:27.386Z,33.97
2022-11-06T05:13:55.517Z,34.80
2022-11-06T05:16:23.472Z,28.85
2022-11-06T05:18:53.046Z,31.58
2022-11-06T05:21:38.401Z,32.45
2022-11-06T05:24:07.576Z,34.85
2022-11-06T05:26:35.528Z,31.55
2022-11-06T05:29:03.784Z,27.48
2022-11-06T05:31:31.762Z,24.88
2022-11-06T05:34:01.359Z,26.08
2022-11-06T05:36:29.448Z,33.45
2022-11-06T05:38:57.440Z,24.88
2022-11-06T05:41:25.607Z,23.98
2022-11-06T05:43:54.034Z,26.85
2022-11-06T05:46:46.915Z,29.77
2022-11-06T05:49:11.605Z,23.60
2022-11-06T05:51:39.556Z,26.33
2022-11-06T05:54:07.528Z,26.38
2022-11-06T05:56:35.465Z,29.77
2022-11-06T05:59:03.472Z,28.38
2022-11-06T06:01:31.747Z,23.10
2022-11-06T06:04:00.087Z,27.08
2022-11-06T06:06:29.828Z,30.40
2022-11-06T06:08:57.815Z,34.80
2022-11-06T06:11:27.079Z,30.90
2022-11-06T06:13:55.379Z,32.28
2022-11-06T06:16:23.532Z,33.97
2022-11-06T06:18:51.806Z,36.17
2022-11-06T06:21:19.837Z,27.58
2022-11-06T06:23:49.187Z,31.60
2022-11-06T06:26:17.314Z,34.45
2022-11-06T06:28:45.333Z,33.58
2022-11-06T06:31:13.505Z,32.10
2022-11-06T06:33:41.711Z,34.28
2022-11-06T06:36:10.605Z,35.28
2022-11-06T06:38:38.649Z,37.67
2022-11-06T06:41:09.340Z,35.67
2022-11-06T06:43:37.651Z,39.17
2022-11-06T06:46:07.639Z,37.75
2022-11-06T06:48:36.367Z,37.83
2022-11-06T06:51:07.785Z,45.38
2022-11-06T06:53:36.472Z,42.90
2022-11-06T06:56:04.760Z,39.33
2022-11-06T06:58:34.189Z,44.33
2022-11-06T07:01:03.210Z,38.40
2022-11-06T07:03:31.714Z,40.08
2022-11-06T07:06:00.382Z,45.65
2022-11-06T07:08:29.441Z,39.90
2022-11-06T07:11:01.175Z,51.10
2022-11-06T07:13:35.445Z,27.25
2022-11-06T07:16:06.788Z,17.63
2022-11-06T07:18:35.564Z,15.60
2022-11-06T07:21:05.965Z,14.27
2022-11-06T07:23:35.020Z,10.57
2022-11-06T07:26:03.398Z,8.60
2022-11-06T07:28:31.857Z,8.05
2022-11-06T07:31:00.854Z,8.90
2022-11-06T07:33:30.627Z,4.55
2022-11-06T07:36:03.877Z,5.63
2022-11-06T07:38:33.733Z,6.53
2022-11-06T07:41:04.517Z,6.13
2022-11-06T07:43:32.668Z,5.63
2022-11-06T07:46:01.784Z,5.78
2022-11-06T07:48:32.566Z,7.38
2022-11-06T07:51:03.677Z,5.45
2022-11-06T07:53:31.988Z,6.50
2022-11-06T07:56:01.310Z,6.10
2022-11-06T07:58:29.941Z,5.22
2022-11-06T08:00:59.674Z,3.95
2022-11-06T08:03:30.294Z,4.47
2022-11-06T08:06:00.694Z,4.57
2022-11-06T08:08:29.482Z,4.90
2022-11-06T08:10:57.663Z,3.60
2022-11-06T08:13:26.566Z,5.55
2022-11-06T08:15:54.661Z,5.63
2022-11-06T08:18:22.695Z,5.38
2022-11-06T08:20:53.768Z,3.63
2022-11-06T08:23:23.534Z,4.45
2022-11-06T08:25:55.182Z,4.50
2022-11-06T08:28:23.289Z,5.15
2022-11-06T08:30:51.308Z,5.53
2022-11-06T08:33:19.839Z,6.10
2022-11-06T08:35:48.292Z,3.95
2022-11-06T08:38:17.141Z,3.55
2022-11-06T08:40:52.348Z,4.82
2022-11-06T08:43:24.214Z,4.75
2022-11-06T08:45:52.420Z,4.30
2022-11-06T08:48:20.668Z,4.65
2022-11-06T08:50:48.930Z,4.90
2022-11-06T08:53:17.726Z,7.15
2022-11-06T08:55:47.700Z,4.20
2022-11-06T08:58:15.982Z,5.57
2022-11-06T09:00:44.217Z,6.07
2022-11-06T09:03:14.917Z,5.60
2022-11-06T09:05:44.774Z,4.57
2022-11-06T09:08:13.768Z,4.07
2022-11-06T09:10:43.197Z,5.85
2022-11-06T09:13:13.726Z,2.55
2022-11-06T09:15:42.487Z,5.63
2022-11-06T09:18:13.556Z,4.63
2022-11-06T09:20:43.886Z,4.28
2022-11-06T09:23:16.033Z,8.30
2022-11-06T09:25:44.304Z,3.47
2022-11-06T09:28:13.866Z,5.47
2022-11-06T09:30:41.879Z,6.53
2022-11-06T09:33:13.468Z,4.22
2022-11-06T09:35:42.709Z,6.35
2022-11-06T09:38:13.312Z,4.82
2022-11-06T09:40:47.874Z,3.80
2022-11-06T09:43:58.225Z,3.65
2022-11-06T09:46:23.224Z,5.60
2022-11-06T09:48:56.586Z,3.47
2022-11-06T09:51:33.029Z,3.38
2022-11-06T09:54:07.491Z,7.38
2022-11-06T09:56:39.286Z,4.68
2022-11-06T09:59:15.070Z,5.00
2022-11-06T10:04:25.113Z,4.85
2022-11-06T10:06:53.885Z,4.50
2022-11-06T10:09:22.031Z,5.70
2022-11-06T10:11:59.253Z,5.78
2022-11-06T10:14:45.794Z,5.47
2022-11-06T10:17:24.349Z,3.80
2022-11-06T10:20:00.134Z,5.53
2022-11-06T10:25:10.097Z,6.72
2022-11-06T10:27:42.406Z,5.47
2022-11-06T10:30:14.749Z,5.03
2022-11-06T10:33:08.299Z,6.20
2022-11-06T10:35:41.600Z,5.55
2022-11-06T10:38:15.036Z,6.85
2022-11-06T10:40:46.091Z,8.38
2022-11-06T10:43:26.053Z,6.20
2022-11-06T10:45:59.893Z,7.07
2022-11-06T10:48:33.419Z,5.57
2022-11-06T10:51:19.275Z,5.50
2022-11-06T10:53:56.950Z,5.40
2022-11-06T10:56:42.584Z,5.78
2022-11-06T10:59:10.631Z,5.78
2022-11-06T11:01:40.556Z,3.83
2022-11-06T11:04:08.773Z,5.07
2022-11-06T11:06:40.560Z,6.32
2022-11-06T11:09:29.295Z,5.78
2022-11-06T11:11:57.675Z,5.15
2022-11-06T11:14:27.667Z,6.45
2022-11-06T11:17:00.057Z,6.90
2022-11-06T11:19:36.541Z,3.38
2022-11-06T11:22:05.835Z,5.90
2022-11-06T11:24:34.400Z,5.85
2022-11-06T11:27:15.546Z,4.15
2022-11-06T11:29:48.463Z,4.35
2022-11-06T11:32:21.823Z,4.65
2022-11-06T11:34:56.616Z,3.80
2022-11-06T11:37:27.954Z,6.78
2022-11-06T11:39:56.271Z,3.60
2022-11-06T11:42:27.562Z,3.97
2022-11-06T11:45:20.075Z,4.88
2022-11-06T11:47:51.682Z,5.95
2022-11-06T11:50:28.172Z,6.20
2022-11-06T11:53:08.690Z,4.47
2022-11-06T11:55:41.852Z,5.90
2022-11-06T11:58:20.992Z,4.97
2022-11-06T12:00:55.359Z,6.63
2022-11-06T12:03:28.566Z,4.55
2022-11-06T12:06:06.986Z,4.57
2022-11-06T12:08:35.262Z,6.15
2022-11-06T12:11:05.756Z,4.93
2022-11-06T12:13:34.546Z,4.32
2022-11-06T12:16:05.717Z,4.78
2022-11-06T12:18:38.214Z,2.92
2022-11-06T12:21:08.405Z,5.65
2022-11-06T12:23:43.704Z,7.78
2022-11-06T12:26:23.520Z,5.75
2022-11-06T12:29:02.069Z,6.07
2022-11-06T12:31:39.823Z,9.95
2022-11-06T12:34:17.395Z,5.80
2022-11-06T12:36:58.214Z,7.90
2022-11-06T12:39:32.487Z,7.57
2022-11-06T12:42:04.995Z,6.80
2022-11-06T12:44:36.766Z,6.80
2022-11-06T12:47:12.297Z,7.03
2022-11-06T12:49:59.879Z,6.65
2022-11-06T12:52:43.397Z,6.45
2022-11-06T12:55:19.801Z,6.60
2022-11-06T12:57:58.292Z,8.15
2022-11-06T13:00:32.075Z,8.77
2022-11-06T13:03:27.036Z,9.52
2022-11-06T13:06:01.743Z,7.95
2022-11-06T13:08:38.483Z,8.18
2022-11-06T13:11:19.808Z,6.13
2022-11-06T13:13:57.491Z,11.48
2022-11-06T13:16:34.825Z,9.98
2022-11-06T13:19:11.954Z,10.02
2022-11-06T13:22:02.762Z,8.10
2022-11-06T13:24:38.176Z,7.03
2022-11-06T13:27:12.577Z,9.55
2022-11-06T13:29:43.037Z,7.97
2022-11-06T13:32:16.688Z,9.77
2022-11-06T13:34:48.893Z,5.88
2022-11-06T13:37:20.845Z,8.93
2022-11-06T13:39:56.173Z,8.15
2022-11-06T13:42:30.486Z,10.82
2022-11-06T13:45:00.030Z,9.55
2022-11-06T13:47:35.637Z,7.32
2022-11-06T13:50:10.071Z,7.65
2022-11-06T13:52:47.574Z,5.68
2022-11-06T13:55:24.732Z,6.10
2022-11-06T13:58:19.650Z,6.47
2022-11-06T14:00:59.581Z,7.47
2022-11-06T14:03:56.683Z,7.05
2022-11-06T14:06:26.564Z,6.50
2022-11-06T14:08:57.989Z,6.40
2022-11-06T14:11:30.148Z,7.57
2022-11-06T14:14:03.433Z,7.13
2022-11-06T14:16:33.608Z,6.57
2022-11-06T14:19:10.662Z,5.97
2022-11-06T14:21:51.717Z,6.00
2022-11-06T14:24:33.715Z,9.15
2022-11-06T14:27:03.667Z,9.52
2022-11-06T14:30:00.548Z,6.28
2022-11-06T14:32:40.981Z,6.43
2022-11-06T14:35:51.904Z,6.35
2022-11-06T14:38:33.833Z,7.00
2022-11-06T14:41:23.776Z,7.43
2022-11-06T14:43:54.991Z,8.77
2022-11-06T14:46:25.162Z,7.20
2022-11-06T14:48:55.984Z,7.68
2022-11-06T14:51:28.905Z,8.15
2022-11-06T14:53:59.923Z,8.43
2022-11-06T14:56:32.506Z,8.40
2022-11-06T14:59:04.401Z,9.50
2022-11-06T15:01:34.702Z,9.88
2022-11-06T15:04:05.690Z,9.80
2022-11-06T15:06:43.435Z,7.38
2022-11-06T15:09:15.503Z,8.75
2022-11-06T15:11:57.573Z,8.57
2022-11-06T15:14:57.658Z,8.95
2022-11-06T15:17:28.814Z,8.27
2022-11-06T15:20:07.494Z,8.55
2022-11-06T15:22:39.420Z,8.82
2022-11-06T15:25:21.001Z,8.70
2022-11-06T15:27:59.334Z,8.05
2022-11-06T15:30:29.576Z,9.38
2022-11-06T15:33:00.005Z,8.75
2022-11-06T15:35:34.076Z,9.80
2022-11-06T15:38:07.335Z,7.95
2022-11-06T15:40:37.734Z,9.43
2022-11-06T15:43:26.842Z,9.13
2022-11-06T15:46:16.322Z,8.27
2022-11-06T15:48:44.648Z,8.27
2022-11-06T15:51:30.838Z,10.43
2022-11-06T15:56:32.509Z,8.48
2022-11-06T15:59:17.578Z,10.40
2022-11-06T16:01:48.981Z,10.50
2022-11-06T16:04:21.752Z,11.15
2022-11-06T16:06:52.423Z,11.45
2022-11-06T16:09:22.910Z,9.90
2022-11-06T16:11:53.061Z,12.38
2022-11-06T16:14:23.311Z,11.45
2022-11-06T16:16:52.836Z,12.18
2022-11-06T16:19:32.096Z,21.15
2022-11-06T16:22:04.426Z,29.63
2022-11-06T16:24:40.937Z,31.25
2022-11-06T16:27:09.989Z,62.80
2022-11-06T16:29:40.405Z,186.70
2022-11-06T16:32:16.226Z,227.00
2022-11-06T16:34:46.139Z,181.25
2022-11-06T16:37:37.732Z,125.30
2022-11-06T16:40:36.279Z,115.78
2022-11-06T16:43:04.640Z,113.25
2022-11-06T16:45:41.621Z,119.00
2022-11-06T16:48:35.848Z,82.47
2022-11-06T16:51:06.690Z,47.15
2022-11-06T16:54:01.448Z,46.45
2022-11-06T16:56:31.418Z,26.85
2022-11-06T16:59:03.767Z,15.27
2022-11-06T17:01:41.213Z,18.08
2022-11-06T17:04:20.618Z,16.85
2022-11-06T17:06:49.619Z,15.68
2022-11-06T17:09:32.401Z,15.68
2022-11-06T17:12:01.599Z,16.38
2022-11-06T17:14:30.557Z,14.40
2022-11-06T17:17:02.377Z,15.23
2022-11-06T17:19:31.135Z,17.92
2022-11-06T17:21:59.813Z,15.13
2022-11-06T17:24:37.038Z,16.63
2022-11-06T17:27:06.641Z,37.55
2022-11-06T17:29:36.441Z,24.10
2022-11-06T17:32:06.186Z,15.00
2022-11-06T17:34:34.518Z,16.80
2022-11-06T17:37:02.668Z,14.45
2022-11-06T17:39:31.846Z,14.63
2022-11-06T17:42:00.039Z,11.13
2022-11-06T17:44:28.220Z,12.98
2022-11-06T17:46:56.339Z,11.52
2022-11-06T17:49:26.058Z,12.82
2022-11-06T17:51:58.416Z,11.10
2022-11-06T17:54:28.999Z,11.02
2022-11-06T17:56:57.729Z,13.13
2022-11-06T17:59:26.231Z,13.75
2022-11-06T18:01:55.810Z,10.80
2022-11-06T18:04:27.824Z,14.35
2022-11-06T18:06:56.214Z,11.02
2022-11-06T18:09:25.110Z,11.93
2022-11-06T18:11:55.096Z,12.30
2022-11-06T18:14:24.659Z,12.40
2022-11-06T18:16:52.900Z,12.15
2022-11-06T18:19:23.321Z,14.45
2022-11-06T18:21:53.187Z,12.85
2022-11-06T18:24:21.534Z,14.80
2022-11-06T18:26:49.555Z,11.40
2022-11-06T18:29:17.844Z,10.43
2022-11-06T18:31:45.855Z,12.85
2022-11-06T18:34:19.827Z,12.98
2022-11-06T18:36:48.975Z,12.50
2022-11-06T18:39:18.884Z,18.55
2022-11-06T18:41:47.065Z,13.55
2022-11-06T18:44:16.919Z,12.85
2022-11-06T18:46:45.229Z,16.50
2022-11-06T18:49:13.388Z,13.13
2022-11-06T18:51:41.581Z,10.73
2022-11-06T18:54:11.544Z,14.82
2022-11-06T18:56:40.982Z,24.27
2022-11-06T18:59:15.484Z,12.52
2022-11-06T19:01:43.743Z,16.65
2022-11-06T19:04:12.026Z,11.55
2022-11-06T19:06:40.560Z,9.30
2022-11-06T19:09:08.964Z,12.50
2022-11-06T19:11:36.996Z,15.57
2022-11-06T19:14:06.465Z,10.27
2022-11-06T19:16:34.555Z,11.25
2022-11-06T19:19:05.602Z,9.75
2022-11-06T19:21:35.106Z,11.20
2022-11-06T19:24:05.904Z,10.32
2022-11-06T19:26:35.475Z,10.98
2022-11-06T19:29:04.234Z,9.90
2022-11-06T19:31:34.955Z,10.68
2022-11-06T19:34:04.686Z,10.82
2022-11-06T19:36:32.895Z,12.20
2022-11-06T19:39:01.326Z,10.73
2022-11-06T19:41:30.297Z,8.65
2022-11-06T19:43:58.598Z,10.38
2022-11-06T19:46:31.088Z,11.07
2022-11-06T19:49:05.276Z,10.73
2022-11-06T19:51:33.916Z,9.48
2022-11-06T19:54:02.616Z,9.50
2022-11-06T19:56:30.742Z,11.90
2022-11-06T19:58:58.859Z,10.50
2022-11-06T20:01:27.148Z,7.13
2022-11-06T20:03:55.184Z,8.73
2022-11-06T20:06:24.535Z,9.25
2022-11-06T20:08:52.793Z,8.27
2022-11-06T20:11:20.792Z,11.38
2022-11-06T20:13:48.938Z,10.13
2022-11-06T20:16:19.161Z,11.40
2022-11-06T20:18:52.306Z,10.23
2022-11-06T20:21:21.360Z,11.70
2022-11-06T20:23:52.472Z,8.50
2022-11-06T20:26:20.991Z,8.93
2022-11-06T20:28:49.759Z,9.60
2022-11-06T20:31:19.856Z,10.38
2022-11-06T20:33:48.266Z,10.02
2022-11-06T20:36:19.205Z,9.75
2022-11-06T20:38:47.744Z,8.95
2022-11-06T20:41:17.871Z,8.93
2022-11-06T20:43:46.622Z,10.10
2022-11-06T20:46:16.389Z,8.70
2022-11-06T20:48:45.614Z,10.55
2022-11-06T20:51:16.099Z,9.55
2022-11-06T20:53:44.362Z,7.90
2022-11-06T20:56:14.745Z,8.07
2022-11-06T20:58:44.119Z,11.23
2022-11-06T21:01:17.388Z,7.47
2022-11-06T21:03:46.694Z,7.38
2022-11-06T21:06:15.339Z,11.48
2022-11-06T21:08:43.959Z,8.80
2022-11-06T21:11:13.990Z,8.10
2022-11-06T21:13:46.118Z,7.30
2022-11-06T21:16:16.488Z,8.40
2022-11-06T21:19:04.723Z,9.65
2022-11-06T21:21:34.621Z,8.75
2022-11-06T21:24:04.602Z,9.35
2022-11-06T21:26:35.289Z,9.68
2022-11-06T21:29:06.693Z,6.85
2022-11-06T21:31:41.367Z,8.00
2022-11-06T21:34:12.323Z,9.73
2022-11-06T21:36:40.487Z,7.30
2022-11-06T21:39:11.597Z,10.00
2022-11-06T21:41:39.781Z,7.95
2022-11-06T21:44:10.109Z,7.20
2022-11-06T21:46:42.532Z,7.43
2022-11-06T21:49:13.673Z,9.13
2022-11-06T21:51:42.647Z,9.50
2022-11-06T21:54:29.493Z,8.65
2022-11-06T21:56:57.776Z,8.52
2022-11-06T21:59:28.698Z,8.20
2022-11-06T22:01:57.377Z,8.50
2022-11-06T22:04:25.731Z,6.07
2022-11-06T22:06:53.758Z,5.35
2022-11-06T22:09:25.405Z,7.25
2022-11-06T22:11:55.266Z,7.18
2022-11-06T22:14:23.604Z,6.68
2022-11-06T22:16:53.796Z,7.30
2022-11-06T22:19:21.945Z,6.78
2022-11-06T22:21:50.113Z,8.35
2022-11-06T22:24:18.404Z,8.05
2022-11-06T22:26:46.591Z,7.47
2022-11-06T22:29:16.611Z,6.32
2022-11-06T22:31:44.822Z,7.63
2022-11-06T22:34:14.685Z,8.07
2022-11-06T22:36:42.894Z,7.30
2022-11-06T22:39:12.225Z,8.52
2022-11-06T22:41:41.048Z,7.28
2022-11-06T22:44:09.747Z,8.18
2022-11-06T22:46:37.972Z,8.40
2022-11-06T22:49:06.872Z,7.53
2022-11-06T22:51:38.843Z,8.63
2022-11-06T22:54:07.558Z,8.73
2022-11-06T22:56:35.616Z,10.52
2022-11-06T22:59:07.728Z,7.40
2022-11-06T23:01:41.985Z,10.27
2022-11-06T23:04:14.848Z,10.02
2022-11-06T23:06:45.758Z,10.48
2022-11-06T23:09:14.674Z,10.75
2022-11-06T23:11:42.739Z,10.60
2022-11-06T23:14:10.746Z,12.65
2022-11-06T23:16:55.995Z,9.30
2022-11-06T23:19:25.170Z,10.25
2022-11-06T23:22:16.478Z,11.93
2022-11-06T23:24:44.908Z,12.07
2022-11-06T23:27:13.459Z,11.68
2022-11-06T23:29:41.649Z,12.68
2022-11-06T23:32:09.704Z,11.68
2022-11-06T23:34:37.691Z,13.32
2022-11-06T23:37:07.118Z,10.88
2022-11-06T23:39:35.114Z,13.75
2022-11-06T23:42:03.268Z,11.63
2022-11-06T23:44:48.749Z,10.98
2022-11-06T23:47:16.786Z,10.43
2022-11-06T23:49:44.905Z,10.60
2022-11-06T23:52:14.308Z,12.32
2022-11-06T23:54:42.402Z,11.93
2022-11-06T23:57:11.159Z,12.88
2022-11-06T23:59:39.397Z,11.07
